• Join FlightAware (Why Join?)
  • Login
  • US Flag 
03:12AM EDT


 

Airport Tracker/Info


-or-


 

Live Flight TrackerFlight Track Log ✈ N379B ✈ 02-Jul-2013 ✈ KSUA - KMCO

Flight Track Log - Related Links

Times and Time Zones

All times are in EDT time to prevent confusion due to time zone crossing. See the N379B flight status page for this flight to view local times or setup timezone preferences in your user account.

Time Position Orientation Groundspeed Altitude Reporting Facility
EDT Latitude Longitude Course Direction KTS MPH feet Rate Location/Type
08:02AM 27.2186 -80.1686 326° Northwest 228 262 4,700  Level Miami Center
08:03AM 27.2503 -80.2536 293° West 202 232 6,000 3,720 Climbing Miami Center
08:05AM 27.3472 -80.3853 310° West 268 308 16,000 3,300 Climbing Miami Center
08:06AM 27.3958 -80.4428 314° West 283 326 16,000  Level Miami Center
08:07AM 27.3248 -80.6061 326° Northwest  Level FlightAware Approximate
08:07AM 27.4547 -80.5147 313° West 300 345 16,000  Level Miami Center
08:08AM 27.5275 -80.6014 313° West 330 380 16,000  Level Miami Center
08:09AM 27.5922 -80.6808 313° West 336 387 16,000  Level Miami Center
08:10AM 27.6489 -80.7508 312° West 336 387 16,000  Level Miami Center
08:11AM 27.7156 -80.8303 313° West 330 380 16,000 -60 Level Miami Center
08:12AM 27.7681 -80.8956 312° West 317 365 15,900 -1,200 Descending Miami Center
08:14AM 27.9000 -81.0500 314° West 310 357 12,500 -1,620 Descending Orlando TRACON
08:15AM 27.9500 -81.1167 310° West 299 344 11,000 -840 Descending Orlando TRACON
08:16AM 28.0333 -81.1500 341° North 306 352 11,000 -660 Level Orlando TRACON
08:17AM 28.1167 -81.1833 341° North 311 358 9,700 -960 Descending Orlando TRACON
08:18AM 28.2000 -81.1833 360° North 299 344 9,000 -360 Descending Orlando TRACON
08:19AM 28.3000 -81.1833 360° North 311 358 9,000  Level Orlando TRACON
08:20AM 28.3833 -81.2000 350° North 296 341 9,000 -720 Level Orlando TRACON
08:21AM 28.4667 -81.2000 360° North 256 295 7,500 -1,200 Descending Orlando TRACON
08:22AM 28.5000 -81.2000 360° North 202 232 6,800 -1,200 Descending Orlando TRACON
08:23AM 28.5667 -81.2167 348° North 215 247 5,200 -1,440 Descending Orlando TRACON
08:24AM 28.6167 -81.2333 344° North 210 242 4,000 -600 Descending Orlando TRACON
08:25AM 28.6333 -81.3000 286° West 181 208 4,000 -120 Level Orlando TRACON
08:26AM 28.6167 -81.3333 240° Southwest 131 151 3,800 -480 Descending Orlando TRACON
08:27AM 28.5833 -81.3333 180° South 138 159 3,200 -600 Descending Orlando TRACON
08:28AM 28.5333 -81.3333 180° South 155 178 2,600 -840 Descending Orlando TRACON
08:29AM 28.5000 -81.3333 180° South 143 165 1,500 -1,140 Descending Orlando TRACON